createdAt,value
2018-08-16T00:00:46.237Z,98.80
2018-08-16T00:03:13.625Z,98.60
2018-08-16T00:05:41.072Z,98.50
2018-08-16T00:08:08.516Z,98.70
2018-08-16T00:10:35.977Z,98.80
2018-08-16T00:13:03.414Z,98.60
2018-08-16T00:15:30.877Z,98.80
2018-08-16T00:17:58.309Z,99.00
2018-08-16T00:20:26.604Z,99.20
2018-08-16T00:22:54.017Z,99.20
2018-08-16T00:25:21.474Z,99.00
2018-08-16T00:27:55.957Z,98.80
2018-08-16T00:30:23.446Z,98.90
2018-08-16T00:32:50.886Z,99.10
2018-08-16T00:35:18.661Z,99.40
2018-08-16T00:37:46.095Z,99.20
2018-08-16T00:40:14.707Z,98.90
2018-08-16T00:42:42.137Z,99.10
2018-08-16T00:45:10.101Z,99.60
2018-08-16T00:47:37.601Z,99.50
2018-08-16T00:50:05.633Z,98.90
2018-08-16T00:52:33.273Z,99.50
2018-08-16T00:55:00.876Z,99.60
2018-08-16T00:57:28.324Z,99.50
2018-08-16T00:59:57.779Z,99.20
2018-08-16T01:02:25.232Z,99.30
2018-08-16T01:04:52.686Z,99.60
2018-08-16T01:07:20.279Z,99.40
2018-08-16T01:09:47.745Z,99.60
2018-08-16T01:12:18.978Z,99.40
2018-08-16T01:14:46.484Z,99.30
2018-08-16T01:17:13.923Z,99.50
2018-08-16T01:19:41.379Z,99.30
2018-08-16T01:22:09.285Z,99.60
2018-08-16T01:24:37.142Z,99.80
2018-08-16T01:27:05.750Z,99.80
2018-08-16T01:29:33.266Z,99.90
2018-08-16T01:32:00.703Z,99.90
2018-08-16T01:34:28.137Z,99.90
2018-08-16T01:36:55.822Z,99.90
2018-08-16T01:39:23.249Z,99.70
2018-08-16T01:41:50.680Z,99.70
2018-08-16T01:44:18.129Z,99.60
2018-08-16T01:46:45.552Z,99.60
2018-08-16T01:49:24.296Z,99.40
2018-08-16T01:51:51.708Z,99.80
2018-08-16T01:54:19.321Z,99.60
2018-08-16T01:56:46.791Z,99.90
2018-08-16T01:59:14.224Z,99.90
2018-08-16T02:01:41.668Z,99.90
2018-08-16T02:04:09.092Z,99.90
2018-08-16T02:06:36.527Z,99.80
2018-08-16T02:09:05.121Z,99.70
2018-08-16T02:11:32.577Z,99.60
2018-08-16T02:14:00.017Z,99.80
2018-08-16T02:27:32.652Z,99.90
2018-08-16T02:30:00.094Z,99.90
2018-08-16T02:32:27.513Z,99.90
2018-08-16T02:34:54.972Z,99.90
2018-08-16T02:37:22.401Z,99.90
2018-08-16T02:39:49.841Z,99.90
2018-08-16T02:42:17.265Z,99.90
2018-08-16T02:44:44.700Z,99.90
2018-08-16T02:47:12.133Z,99.90
2018-08-16T02:49:39.564Z,99.90
2018-08-16T02:52:06.987Z,99.90
2018-08-16T02:54:34.489Z,99.90
2018-08-16T02:57:01.929Z,99.90
2018-08-16T02:59:29.360Z,99.90
2018-08-16T03:01:56.860Z,99.90
2018-08-16T03:04:24.292Z,99.90
2018-08-16T03:06:51.728Z,99.90
2018-08-16T03:09:19.168Z,99.90
2018-08-16T03:11:46.615Z,99.90
2018-08-16T03:14:21.844Z,99.90
2018-08-16T03:16:49.277Z,99.90
2018-08-16T03:19:16.704Z,99.90
2018-08-16T03:21:44.165Z,99.90
2018-08-16T03:24:11.610Z,99.90
2018-08-16T03:26:39.072Z,99.90
2018-08-16T03:29:06.524Z,99.90
2018-08-16T03:31:34.017Z,99.90
2018-08-16T03:34:01.448Z,99.90
2018-08-16T03:36:28.893Z,99.90
2018-08-16T03:38:56.318Z,99.90
2018-08-16T03:41:23.757Z,99.90
2018-08-16T03:43:51.184Z,99.90
2018-08-16T03:46:19.669Z,99.90
2018-08-16T03:48:47.116Z,99.90
2018-08-16T03:51:14.624Z,99.90
2018-08-16T03:53:42.062Z,99.90
2018-08-16T03:56:09.488Z,99.90
2018-08-16T03:58:36.916Z,99.90
2018-08-16T04:01:04.340Z,99.90
2018-08-16T04:03:31.781Z,99.90
2018-08-16T04:06:03.613Z,99.90
2018-08-16T04:08:31.556Z,99.90
2018-08-16T04:10:58.980Z,99.90
2018-08-16T04:13:26.435Z,99.90
2018-08-16T04:15:53.868Z,99.90
2018-08-16T04:18:21.316Z,99.90
2018-08-16T04:20:48.760Z,99.90
2018-08-16T04:23:18.616Z,99.90
2018-08-16T04:25:46.043Z,99.90
2018-08-16T04:28:13.525Z,99.90
2018-08-16T04:30:40.948Z,99.90
2018-08-16T04:33:08.504Z,99.90
2018-08-16T04:35:36.034Z,99.90
2018-08-16T04:38:03.413Z,99.90
2018-08-16T04:40:30.877Z,99.90
2018-08-16T04:42:58.317Z,99.90
2018-08-16T04:45:25.764Z,99.90
2018-08-16T04:47:53.196Z,99.90
2018-08-16T04:50:20.637Z,99.90
2018-08-16T04:52:48.493Z,99.90
2018-08-16T04:55:16.057Z,99.90
2018-08-16T04:57:43.729Z,99.90
2018-08-16T05:00:12.730Z,99.90
2018-08-16T05:02:40.350Z,99.90
2018-08-16T05:05:08.405Z,99.90
2018-08-16T05:07:36.089Z,99.90
2018-08-16T05:10:04.574Z,99.90
2018-08-16T05:12:32.268Z,99.90
2018-08-16T05:14:59.895Z,99.90
2018-08-16T05:17:27.536Z,99.90
2018-08-16T05:22:51.703Z,99.90
2018-08-16T05:25:19.502Z,99.90
2018-08-16T05:27:47.178Z,99.90
2018-08-16T05:30:14.865Z,99.90
2018-08-16T05:32:42.514Z,99.90
2018-08-16T05:35:10.199Z,99.90
2018-08-16T05:37:38.471Z,99.90
2018-08-16T05:40:06.809Z,99.90
2018-08-16T05:42:36.622Z,99.90
2018-08-16T05:45:04.636Z,99.90
2018-08-16T05:47:32.249Z,99.90
2018-08-16T05:49:59.883Z,99.90
2018-08-16T05:52:27.560Z,99.90
2018-08-16T05:54:55.338Z,99.90
2018-08-16T05:57:22.992Z,99.90
2018-08-16T05:59:50.766Z,99.90
2018-08-16T06:02:18.642Z,99.90
2018-08-16T06:04:46.297Z,99.90
2018-08-16T06:07:13.971Z,99.90
2018-08-16T06:09:41.721Z,99.60
2018-08-16T06:12:09.401Z,99.20
2018-08-16T06:14:37.374Z,98.80
2018-08-16T06:17:05.148Z,98.30
2018-08-16T06:19:32.784Z,98.10
2018-08-16T06:22:00.392Z,98.10
2018-08-16T06:24:28.216Z,97.10
2018-08-16T06:26:55.880Z,96.80
2018-08-16T06:29:23.544Z,96.60
2018-08-16T06:31:51.173Z,96.40
2018-08-16T06:34:18.852Z,96.50
2018-08-16T06:36:46.501Z,95.90
2018-08-16T06:39:14.138Z,95.40
2018-08-16T06:41:42.038Z,95.60
2018-08-16T06:44:17.077Z,95.50
2018-08-16T06:46:44.774Z,95.30
2018-08-16T06:49:12.432Z,94.70
2018-08-16T06:51:40.259Z,94.50
2018-08-16T06:54:08.054Z,94.50
2018-08-16T06:56:35.742Z,93.50
2018-08-16T06:59:03.520Z,93.70
2018-08-16T07:01:31.181Z,93.50
2018-08-16T07:03:58.906Z,93.20
2018-08-16T07:06:26.714Z,92.90
2018-08-16T07:08:54.349Z,92.20
2018-08-16T07:11:22.069Z,92.30
2018-08-16T07:13:49.703Z,92.20
2018-08-16T07:16:17.317Z,92.30
2018-08-16T07:18:44.962Z,91.90
2018-08-16T07:21:12.535Z,91.60
2018-08-16T07:23:40.199Z,91.10
2018-08-16T07:26:07.856Z,90.70
2018-08-16T07:28:35.507Z,90.40
2018-08-16T07:31:04.302Z,89.60
2018-08-16T07:33:32.016Z,90.10
2018-08-16T07:35:59.617Z,90.10
2018-08-16T07:38:27.261Z,90.30
2018-08-16T07:40:54.957Z,89.10
2018-08-16T07:43:22.531Z,88.80
2018-08-16T07:45:50.346Z,88.20
2018-08-16T07:48:17.826Z,87.50
2018-08-16T07:50:45.460Z,86.70
2018-08-16T07:53:13.078Z,85.90
2018-08-16T07:55:40.757Z,85.70
2018-08-16T07:58:21.738Z,84.90
2018-08-16T08:00:49.386Z,85.00
2018-08-16T08:03:16.921Z,83.90
2018-08-16T08:05:44.534Z,82.30
2018-08-16T08:08:12.090Z,81.30
2018-08-16T08:10:39.859Z,81.00
2018-08-16T08:13:11.700Z,80.90
2018-08-16T08:15:41.437Z,79.90
2018-08-16T08:18:09.173Z,78.40
2018-08-16T08:20:36.926Z,77.30
2018-08-16T08:23:04.530Z,76.60
2018-08-16T08:25:32.161Z,76.70
2018-08-16T08:27:59.765Z,76.50
2018-08-16T08:30:27.357Z,75.40
2018-08-16T08:32:54.962Z,74.70
2018-08-16T08:35:22.598Z,73.40
2018-08-16T08:37:55.870Z,72.40
2018-08-16T08:40:23.584Z,71.30
2018-08-16T08:42:51.195Z,70.50
2018-08-16T08:45:18.752Z,68.70
2018-08-16T08:47:49.272Z,67.80
2018-08-16T08:50:20.641Z,66.50
2018-08-16T08:52:48.281Z,64.10
2018-08-16T08:55:21.548Z,64.30
2018-08-16T08:58:04.842Z,63.80
2018-08-16T09:00:32.456Z,62.70
2018-08-16T09:03:00.121Z,62.30
2018-08-16T09:05:27.890Z,60.90
2018-08-16T09:07:55.468Z,59.90
2018-08-16T09:10:54.169Z,59.90
2018-08-16T09:13:27.361Z,59.50
2018-08-16T09:15:55.073Z,59.50
2018-08-16T09:21:18.460Z,58.10
2018-08-16T09:23:46.146Z,57.90
2018-08-16T09:26:19.387Z,59.50
2018-08-16T09:28:46.969Z,58.10
2018-08-16T09:31:20.655Z,57.50
2018-08-16T09:34:23.395Z,57.20
2018-08-16T09:36:52.038Z,56.10
2018-08-16T09:39:19.676Z,55.60
2018-08-16T09:41:47.213Z,54.40
2018-08-16T09:44:14.910Z,53.50
2018-08-16T09:46:49.654Z,52.70
2018-08-16T09:49:17.227Z,51.70
2018-08-16T09:51:46.072Z,52.00
2018-08-16T09:54:13.690Z,51.40
2018-08-16T09:56:41.751Z,51.70
2018-08-16T09:59:09.545Z,51.10
2018-08-16T10:01:37.237Z,50.90
2018-08-16T10:04:05.577Z,50.20
2018-08-16T10:06:33.402Z,49.70
2018-08-16T10:09:01.038Z,48.60
2018-08-16T10:11:28.756Z,49.50
2018-08-16T10:13:57.889Z,48.60
2018-08-16T10:16:25.597Z,48.60
2018-08-16T10:18:53.245Z,47.70
2018-08-16T10:21:26.387Z,47.50
2018-08-16T10:23:54.031Z,48.10
2018-08-16T10:26:21.642Z,48.20
2018-08-16T10:28:49.241Z,47.70
2018-08-16T10:31:16.965Z,46.60
2018-08-16T10:33:57.713Z,47.30
2018-08-16T10:36:25.582Z,46.90
2018-08-16T10:38:53.215Z,47.20
2018-08-16T10:41:20.849Z,46.70
2018-08-16T10:43:48.555Z,46.80
2018-08-16T10:46:16.123Z,46.50
2018-08-16T10:48:43.722Z,45.80
2018-08-16T10:51:11.484Z,46.10
2018-08-16T10:53:39.167Z,45.60
2018-08-16T10:56:06.784Z,45.60
2018-08-16T11:01:21.827Z,45.40
2018-08-16T11:03:49.585Z,44.40
2018-08-16T11:06:17.513Z,44.40
2018-08-16T11:08:46.208Z,44.60
2018-08-16T11:11:14.100Z,43.90
2018-08-16T11:13:41.938Z,43.20
2018-08-16T11:16:09.761Z,43.00
2018-08-16T11:18:38.323Z,42.50
2018-08-16T11:21:18.770Z,41.70
2018-08-16T11:23:46.498Z,42.40
2018-08-16T11:26:18.786Z,42.70
2018-08-16T11:28:46.478Z,43.00
2018-08-16T11:31:14.245Z,42.60
2018-08-16T11:33:45.955Z,42.50
2018-08-16T11:36:13.662Z,41.60
2018-08-16T11:38:41.238Z,41.30
2018-08-16T11:41:11.134Z,42.10
2018-08-16T11:43:38.869Z,43.10
2018-08-16T11:46:08.758Z,42.20
2018-08-16T11:48:40.010Z,42.40
2018-08-16T11:51:08.762Z,41.20
2018-08-16T11:53:37.378Z,42.30
2018-08-16T11:56:07.288Z,41.40
2018-08-16T11:58:35.144Z,42.00
2018-08-16T12:01:03.011Z,40.90
2018-08-16T12:03:30.883Z,41.20
2018-08-16T12:05:58.897Z,40.50
2018-08-16T12:08:26.772Z,40.00
2018-08-16T12:11:01.262Z,40.10
2018-08-16T12:13:37.028Z,39.20
2018-08-16T12:16:04.688Z,39.80
2018-08-16T12:18:33.259Z,40.20
2018-08-16T12:21:00.954Z,39.90
2018-08-16T12:23:28.573Z,40.20
2018-08-16T12:25:56.167Z,39.60
2018-08-16T12:28:23.802Z,38.90
2018-08-16T12:31:01.530Z,39.40
2018-08-16T12:33:29.184Z,40.00
2018-08-16T12:36:03.285Z,39.60
2018-08-16T12:38:31.186Z,39.20
2018-08-16T12:40:58.870Z,38.20
2018-08-16T12:43:32.035Z,39.50
2018-08-16T12:45:59.858Z,39.40
2018-08-16T12:48:27.509Z,38.90
2018-08-16T12:50:55.202Z,39.50
2018-08-16T12:53:22.811Z,38.90
2018-08-16T12:55:50.462Z,39.10
2018-08-16T12:58:18.104Z,39.30
2018-08-16T13:00:45.700Z,39.80
2018-08-16T13:03:13.323Z,39.80
2018-08-16T13:05:41.762Z,39.60
2018-08-16T13:08:09.426Z,39.80
2018-08-16T13:10:37.085Z,38.90
2018-08-16T13:13:23.013Z,39.80
2018-08-16T13:15:50.605Z,39.40
2018-08-16T13:18:18.195Z,40.20
2018-08-16T13:20:45.857Z,39.80
2018-08-16T13:23:13.451Z,40.00
2018-08-16T13:25:41.041Z,40.10
2018-08-16T13:28:08.679Z,40.60
2018-08-16T13:30:36.253Z,40.50
2018-08-16T13:33:03.894Z,40.60
2018-08-16T13:35:31.496Z,40.30
2018-08-16T13:37:59.122Z,40.20
2018-08-16T13:40:26.726Z,39.50
2018-08-16T13:42:54.399Z,40.10
2018-08-16T13:45:21.950Z,41.10
2018-08-16T13:47:49.536Z,40.70
2018-08-16T13:50:17.110Z,40.80
2018-08-16T13:52:56.812Z,40.70
2018-08-16T13:55:24.380Z,41.10
2018-08-16T13:57:51.989Z,40.70
2018-08-16T14:00:19.683Z,40.90
2018-08-16T14:02:47.289Z,41.80
2018-08-16T14:05:14.935Z,40.90
2018-08-16T14:07:42.545Z,40.70
2018-08-16T14:10:10.238Z,41.20
2018-08-16T14:12:37.939Z,41.70
2018-08-16T14:15:06.220Z,42.10
2018-08-16T14:17:33.809Z,42.70
2018-08-16T14:20:01.615Z,41.90
2018-08-16T14:25:16.774Z,43.50
2018-08-16T14:27:44.504Z,44.50
2018-08-16T14:30:12.172Z,44.40
2018-08-16T14:32:57.141Z,44.60
2018-08-16T14:35:24.828Z,44.30
2018-08-16T14:37:52.456Z,43.10
2018-08-16T14:40:20.163Z,43.20
2018-08-16T14:43:00.617Z,43.60
2018-08-16T14:45:28.429Z,42.70
2018-08-16T14:47:56.114Z,42.70
2018-08-16T14:50:23.799Z,43.00
2018-08-16T14:52:51.816Z,42.70
2018-08-16T14:55:19.478Z,42.90
2018-08-16T14:57:47.190Z,42.60
2018-08-16T15:00:14.865Z,43.30
2018-08-16T15:02:42.541Z,42.70
2018-08-16T15:05:10.145Z,42.00
2018-08-16T15:07:37.854Z,42.40
2018-08-16T15:10:05.870Z,43.10
2018-08-16T15:12:33.728Z,43.20
2018-08-16T15:15:01.367Z,42.70
2018-08-16T15:17:29.036Z,43.20
2018-08-16T15:19:56.688Z,43.00
2018-08-16T15:22:24.269Z,43.10
2018-08-16T15:24:51.931Z,43.70
2018-08-16T15:27:19.567Z,43.80
2018-08-16T15:29:47.279Z,43.80
2018-08-16T15:32:14.927Z,43.20
2018-08-16T15:34:42.490Z,44.20
2018-08-16T15:37:10.114Z,44.10
2018-08-16T15:39:39.816Z,44.60
2018-08-16T15:42:07.529Z,44.80
2018-08-16T15:44:35.126Z,44.80
2018-08-16T15:47:02.684Z,44.70
2018-08-16T15:49:30.299Z,44.50
2018-08-16T15:51:57.927Z,44.40
2018-08-16T15:54:25.760Z,44.10
2018-08-16T15:56:53.438Z,44.20
2018-08-16T15:59:21.004Z,43.70
2018-08-16T16:01:48.654Z,44.40
2018-08-16T16:04:16.404Z,44.30
2018-08-16T16:06:44.027Z,44.70
2018-08-16T16:09:11.740Z,44.40
2018-08-16T16:11:39.439Z,45.20
2018-08-16T16:14:07.509Z,44.80
2018-08-16T16:16:35.175Z,44.80
2018-08-16T16:19:13.767Z,44.40
2018-08-16T16:21:41.422Z,44.30
2018-08-16T16:24:09.080Z,44.80
2018-08-16T16:29:34.662Z,44.90
2018-08-16T16:32:02.406Z,44.70
2018-08-16T16:34:30.134Z,44.80
2018-08-16T16:36:57.758Z,44.90
2018-08-16T16:39:25.490Z,44.60
2018-08-16T16:41:53.080Z,44.30
2018-08-16T16:44:20.701Z,44.20
2018-08-16T16:46:48.363Z,44.50
2018-08-16T16:49:20.305Z,44.60
2018-08-16T16:51:47.925Z,44.90
2018-08-16T16:54:19.901Z,44.90
2018-08-16T16:56:47.507Z,44.20
2018-08-16T16:59:15.205Z,44.90
2018-08-16T17:01:43.185Z,44.90
2018-08-16T17:04:16.615Z,45.50
2018-08-16T17:06:46.183Z,45.30
2018-08-16T17:09:13.943Z,45.20
2018-08-16T17:11:42.249Z,45.30
2018-08-16T17:14:10.186Z,45.50
2018-08-16T17:16:38.093Z,45.60
2018-08-16T17:19:05.945Z,46.20
2018-08-16T17:21:33.867Z,45.80
2018-08-16T17:24:01.684Z,46.20
2018-08-16T17:26:34.876Z,46.20
2018-08-16T17:29:03.001Z,46.20
2018-08-16T17:31:30.909Z,46.90
2018-08-16T17:33:58.776Z,46.80
2018-08-16T17:36:26.514Z,46.50
2018-08-16T17:38:54.431Z,46.40
2018-08-16T17:41:22.167Z,46.60
2018-08-16T17:43:55.892Z,46.30
2018-08-16T17:46:24.693Z,46.50
2018-08-16T17:48:55.731Z,46.20
2018-08-16T17:51:24.171Z,46.40
2018-08-16T17:53:51.897Z,46.40
2018-08-16T17:56:19.672Z,47.20
2018-08-16T17:58:47.416Z,47.10
2018-08-16T18:01:20.331Z,47.20
2018-08-16T18:03:48.011Z,47.80
2018-08-16T18:06:15.831Z,48.30
2018-08-16T18:08:43.945Z,48.20
2018-08-16T18:11:12.113Z,48.30
2018-08-16T18:13:40.155Z,48.60
2018-08-16T18:16:07.928Z,48.70
2018-08-16T18:18:35.967Z,49.20
2018-08-16T18:21:03.660Z,49.30
2018-08-16T18:23:31.356Z,49.50
2018-08-16T18:25:59.071Z,50.00
2018-08-16T18:28:26.854Z,50.40
2018-08-16T18:30:54.658Z,50.90
2018-08-16T18:33:22.361Z,52.30
2018-08-16T18:35:50.108Z,53.00
2018-08-16T18:38:17.971Z,53.70
2018-08-16T18:40:45.721Z,54.40
2018-08-16T18:43:13.466Z,55.20
2018-08-16T18:45:41.102Z,55.40
2018-08-16T18:48:14.787Z,55.80
2018-08-16T18:50:42.618Z,55.90
2018-08-16T18:53:10.335Z,56.40
2018-08-16T18:55:37.957Z,57.30
2018-08-16T18:58:05.578Z,57.90
2018-08-16T19:00:33.396Z,58.60
2018-08-16T19:03:01.140Z,59.10
2018-08-16T19:05:28.918Z,60.10
2018-08-16T19:07:56.542Z,60.10
2018-08-16T19:10:24.294Z,61.10
2018-08-16T19:12:52.034Z,62.40
2018-08-16T19:15:19.781Z,63.40
2018-08-16T19:17:47.462Z,64.40
2018-08-16T19:20:15.181Z,65.50
2018-08-16T19:22:43.020Z,65.80
2018-08-16T19:25:10.719Z,66.90
2018-08-16T19:27:38.478Z,67.70
2018-08-16T19:30:06.233Z,68.30
2018-08-16T19:32:34.143Z,68.10
2018-08-16T19:35:01.882Z,68.90
2018-08-16T19:37:29.601Z,68.80
2018-08-16T19:39:58.355Z,68.40
2018-08-16T19:42:26.074Z,67.80
2018-08-16T19:44:53.740Z,67.80
2018-08-16T19:47:21.476Z,68.40
2018-08-16T19:49:49.259Z,68.50
2018-08-16T19:52:16.943Z,69.50
2018-08-16T19:54:44.626Z,70.00
2018-08-16T19:57:28.065Z,70.80
2018-08-16T19:59:55.906Z,71.10
2018-08-16T20:02:23.604Z,71.70
2018-08-16T20:04:51.322Z,73.20
2018-08-16T20:07:19.113Z,72.50
2018-08-16T20:09:52.259Z,73.80
2018-08-16T20:12:20.009Z,75.40
2018-08-16T20:14:47.679Z,76.50
2018-08-16T20:17:15.918Z,77.30
2018-08-16T20:19:43.612Z,77.70
2018-08-16T20:22:12.555Z,77.70
2018-08-16T20:24:40.322Z,78.20
2018-08-16T20:27:08.028Z,77.80
2018-08-16T20:29:35.737Z,77.60
2018-08-16T20:32:03.470Z,78.50
2018-08-16T20:34:31.177Z,78.90
2018-08-16T20:36:58.890Z,79.20
2018-08-16T20:39:26.544Z,79.50
2018-08-16T20:42:00.227Z,79.50
2018-08-16T20:44:27.847Z,80.10
2018-08-16T20:46:55.584Z,81.20
2018-08-16T20:49:23.496Z,82.20
2018-08-16T20:51:51.113Z,82.60
2018-08-16T20:54:18.866Z,83.50
2018-08-16T20:56:46.490Z,84.00
2018-08-16T20:59:14.167Z,84.70
2018-08-16T21:01:41.899Z,84.90
2018-08-16T21:04:17.534Z,85.30
2018-08-16T21:06:46.250Z,86.00
2018-08-16T21:09:29.561Z,87.00
2018-08-16T21:11:57.217Z,87.00
2018-08-16T21:14:24.857Z,87.20
2018-08-16T21:16:52.516Z,88.30
2018-08-16T21:19:20.245Z,87.90
2018-08-16T21:21:48.019Z,87.90
2018-08-16T21:24:15.557Z,88.50
2018-08-16T21:26:43.226Z,88.30
2018-08-16T21:29:10.851Z,88.60
2018-08-16T21:31:38.499Z,88.80
2018-08-16T21:34:06.141Z,89.10
2018-08-16T21:36:33.872Z,89.70
2018-08-16T21:39:01.509Z,90.00
2018-08-16T21:41:29.159Z,90.10
2018-08-16T21:43:56.886Z,90.20
2018-08-16T21:46:24.518Z,90.20
2018-08-16T21:48:52.164Z,90.30
2018-08-16T21:51:19.807Z,90.50
2018-08-16T21:53:47.504Z,90.60
2018-08-16T21:56:15.142Z,90.50
2018-08-16T21:58:42.796Z,90.60
2018-08-16T22:01:10.394Z,90.60
2018-08-16T22:03:38.066Z,90.60
2018-08-16T22:06:11.085Z,90.40
2018-08-16T22:08:39.005Z,90.40
2018-08-16T22:11:06.789Z,90.30
2018-08-16T22:13:34.453Z,90.20
2018-08-16T22:16:02.140Z,90.10
2018-08-16T22:18:30.872Z,90.10
2018-08-16T22:20:58.544Z,90.20
2018-08-16T22:23:26.240Z,90.40
2018-08-16T22:25:53.829Z,90.40
2018-08-16T22:28:21.483Z,90.50
2018-08-16T22:30:49.147Z,90.80
2018-08-16T22:33:16.770Z,91.10
2018-08-16T22:35:44.360Z,91.20
2018-08-16T22:38:12.017Z,91.10
2018-08-16T22:40:39.602Z,91.50
2018-08-16T22:43:07.221Z,91.30
2018-08-16T22:45:34.954Z,91.50
2018-08-16T22:48:02.556Z,91.40
2018-08-16T22:50:30.212Z,91.40
2018-08-16T22:52:57.812Z,91.60
2018-08-16T22:55:25.393Z,91.70
2018-08-16T22:57:53.048Z,91.80
2018-08-16T23:00:20.617Z,92.10
2018-08-16T23:02:48.630Z,92.10
2018-08-16T23:05:16.292Z,92.20
2018-08-16T23:07:44.063Z,92.50
2018-08-16T23:10:11.781Z,92.40
2018-08-16T23:12:39.443Z,92.30
2018-08-16T23:15:07.193Z,92.40
2018-08-16T23:17:35.008Z,92.80
2018-08-16T23:20:02.976Z,92.50
2018-08-16T23:22:30.785Z,92.60
2018-08-16T23:24:59.413Z,92.80
2018-08-16T23:27:27.301Z,92.90
2018-08-16T23:29:56.095Z,93.00
2018-08-16T23:32:24.210Z,93.20
2018-08-16T23:34:52.003Z,93.50
2018-08-16T23:37:20.138Z,93.50
2018-08-16T23:39:47.966Z,93.70
2018-08-16T23:42:16.470Z,93.90
2018-08-16T23:44:44.320Z,93.70
2018-08-16T23:47:12.044Z,93.70
2018-08-16T23:49:39.827Z,93.80
2018-08-16T23:52:07.682Z,93.90
2018-08-16T23:54:39.431Z,94.10
2018-08-16T23:57:07.302Z,94.10
2018-08-16T23:59:35.229Z,94.20
